Time;durP1;ratioP1;P1;durP2;ratioP2;P2;SDS_P1;SDS_P2;PMS_P1;PMS_P2;Temp;Humidity;BMP_temperature;BMP_pressure;BME280_temperature;BME280_humidity;BME280_pressure;Samples;Min_cycle;Max_cycle;Signal;HPM_P1;HPM_P2
2021/12/13 00:01:15;;;;;;;2.87;2.10;;;;;;;5.99;85.77;96965.31;5048957;28;20194;-62
2021/12/13 00:04:24;;;;;;;3.10;2.20;;;;;;;6.05;85.75;96970.28;5049585;28;20199;-62
2021/12/13 00:07:48;;;;;;;4.63;2.10;;;;;;;6.10;87.41;96977.84;5049610;28;20199;-62
2021/12/13 00:11:09;;;;;;;2.00;1.60;;;;;;;6.04;85.28;96989.13;5048904;28;20196;-62
2021/12/13 00:14:33;;;;;;;2.20;1.57;;;;;;;5.84;86.14;96985.44;5048568;28;20195;-62
2021/12/13 00:17:56;;;;;;;2.37;1.73;;;;;;;5.78;86.32;96991.59;5049007;28;20266;-62
2021/12/13 00:21:19;;;;;;;2.30;1.50;;;;;;;5.82;86.95;96993.19;5049453;28;20220;-62
2021/12/13 00:24:40;;;;;;;2.43;1.97;;;;;;;5.74;84.93;97005.41;5049090;28;20197;-62
2021/12/13 00:28:01;;;;;;;3.03;1.70;;;;;;;5.81;85.69;97012.06;5048377;28;20648;-62
2021/12/13 00:31:25;;;;;;;1.57;1.47;;;;;;;5.78;86.37;97001.84;5048448;28;20294;-62
2021/12/13 00:34:07;;;;;;;1.90;1.70;;;;;;;5.77;84.33;96995.00;5049089;28;20187;-62
2021/12/13 00:37:29;;;;;;;2.73;1.90;;;;;;;5.84;84.97;97011.16;5049002;28;20552;-62
2021/12/13 00:40:59;;;;;;;2.43;1.80;;;;;;;5.82;84.29;97008.59;5048145;28;20196;-62
2021/12/13 00:44:25;;;;;;;1.87;1.60;;;;;;;5.43;85.10;97007.94;5047966;28;20594;-62
2021/12/13 00:47:52;;;;;;;1.63;1.53;;;;;;;5.47;84.47;97003.56;5048728;28;20199;-62
2021/12/13 00:51:27;;;;;;;2.17;1.80;;;;;;;5.36;86.07;97003.00;5049011;28;20199;-62
2021/12/13 00:54:51;;;;;;;1.50;1.40;;;;;;;5.43;86.00;97009.66;5046673;28;20237;-62
2021/12/13 00:58:12;;;;;;;1.60;1.50;;;;;;;5.61;85.67;97004.88;5048024;28;20196;-62
2021/12/13 01:01:35;;;;;;;1.93;1.80;;;;;;;5.75;85.53;97007.06;5047815;28;20183;-62
2021/12/13 01:04:54;;;;;;;2.83;2.50;;;;;;;5.69;84.50;97005.50;5048422;28;20673;-62
2021/12/13 01:08:32;;;;;;;1.87;1.60;;;;;;;5.42;84.92;97005.44;5048522;28;20191;-61
2021/12/13 01:11:56;;;;;;;2.10;1.90;;;;;;;5.41;87.11;97003.72;5048003;28;20618;-62
2021/12/13 01:15:34;;;;;;;3.23;2.20;;;;;;;5.09;88.31;96996.00;5047502;28;20294;-62
2021/12/13 01:19:27;;;;;;;4.07;2.50;;;;;;;4.97;90.44;96988.63;5047309;28;20198;-62
2021/12/13 01:22:48;;;;;;;5.00;2.90;;;;;;;5.16;91.00;96984.69;5047647;28;20709;-62
2021/12/13 01:26:28;;;;;;;4.50;2.23;;;;;;;5.45;89.02;96993.34;5046121;28;20191;-62
2021/12/13 01:29:49;;;;;;;4.10;2.93;;;;;;;5.72;87.17;96991.75;5048060;28;20225;-63
2021/12/13 01:33:16;;;;;;;4.70;2.90;;;;;;;5.80;86.44;96989.81;5047575;28;20216;-62
2021/12/13 01:36:42;;;;;;;3.33;2.47;;;;;;;5.94;85.12;96989.44;5047018;28;20235;-62
2021/12/13 01:40:03;;;;;;;4.30;3.43;;;;;;;5.88;85.12;96987.03;5047172;28;20199;-62
2021/12/13 01:43:23;;;;;;;3.63;2.90;;;;;;;5.95;85.27;96989.41;5047500;28;20260;-61
2021/12/13 01:46:44;;;;;;;3.80;2.40;;;;;;;5.76;84.12;97001.06;5047720;28;20203;-62
2021/12/13 01:50:11;;;;;;;2.43;2.10;;;;;;;5.69;84.79;96996.97;5046811;28;20231;-62
2021/12/13 01:53:32;;;;;;;1.90;1.80;;;;;;;5.69;85.38;96996.97;5046656;28;20186;-61
2021/12/13 01:57:10;;;;;;;4.33;2.10;;;;;;;5.72;84.84;96996.88;5046675;28;20673;-61
2021/12/13 02:00:17;;;;;;;1.90;1.73;;;;;;;5.79;84.79;96985.53;5047442;28;20548;-62
2021/12/13 02:03:41;;;;;;;2.27;2.07;;;;;;;5.80;83.92;96994.94;5047392;28;20203;-62
2021/12/13 02:07:03;;;;;;;2.07;1.87;;;;;;;5.82;83.36;96993.19;5046780;28;20187;-62
2021/12/13 02:10:23;;;;;;;2.10;1.90;;;;;;;5.80;83.49;96994.94;5046575;28;20230;-64
2021/12/13 02:14:03;;;;;;;3.63;2.30;;;;;;;5.81;83.28;97000.94;5047171;28;20195;-61
2021/12/13 02:17:27;;;;;;;3.23;2.40;;;;;;;5.74;83.92;96995.97;5047171;28;20224;-61
2021/12/13 02:20:48;;;;;;;2.90;2.27;;;;;;;5.61;83.43;96988.63;5046900;28;20207;-62
2021/12/13 02:24:08;;;;;;;2.60;2.40;;;;;;;5.44;83.01;96988.25;5046396;28;20290;-61
2021/12/13 02:27:29;;;;;;;2.70;2.13;;;;;;;5.52;84.39;96981.19;5046329;28;20270;-61
2021/12/13 02:30:33;;;;;;;3.73;2.57;;;;;;;5.45;83.15;96982.22;5046333;28;20288;-62
2021/12/13 02:33:56;;;;;;;4.63;2.60;;;;;;;5.43;82.82;96987.41;5046779;28;20213;-62
2021/12/13 02:37:17;;;;;;;5.33;3.10;;;;;;;5.33;84.65;96985.13;5046161;28;20624;-62
2021/12/13 02:40:37;;;;;;;3.17;2.47;;;;;;;5.25;85.38;96974.22;5046346;28;20234;-61
2021/12/13 02:43:58;;;;;;;3.73;2.97;;;;;;;5.10;86.45;96979.72;5046542;28;20665;-62
2021/12/13 02:47:19;;;;;;;5.33;3.47;;;;;;;5.38;87.02;96996.13;5046934;28;20531;-62
2021/12/13 02:50:39;;;;;;;3.70;3.30;;;;;;;5.52;85.65;96999.97;5046892;28;20196;-62
2021/12/13 02:54:00;;;;;;;5.20;3.00;;;;;;;5.42;84.27;96982.31;5045786;28;20207;-62
2021/12/13 02:57:24;;;;;;;6.17;4.07;;;;;;;5.31;84.89;96989.44;5046522;28;20187;-61
2021/12/13 03:00:31;;;;;;;5.10;3.77;;;;;;;5.29;87.07;96980.94;5046653;28;20195;-61
2021/12/13 03:03:52;;;;;;;5.07;3.57;;;;;;;5.37;87.44;96984.16;5046372;28;20200;-61
2021/12/13 03:07:13;;;;;;;5.77;4.20;;;;;;;5.48;85.99;96987.28;5046389;28;20196;-61
2021/12/13 03:10:33;;;;;;;7.33;4.40;;;;;;;5.59;85.60;96991.25;5049940;28;20293;-62
2021/12/13 03:13:54;;;;;;;5.57;3.80;;;;;;;5.62;85.98;96990.31;5050393;28;20196;-62
2021/12/13 03:17:18;;;;;;;7.87;4.80;;;;;;;5.52;85.81;97009.44;5050474;28;20222;-62
2021/12/13 03:20:21;;;;;;;7.83;5.43;;;;;;;5.55;85.03;97007.63;5050124;28;20285;-62
2021/12/13 03:23:49;;;;;;;9.10;6.00;;;;;;;5.42;85.27;97015.69;5049817;28;20275;-62
2021/12/13 03:27:31;;;;;;;6.47;5.00;;;;;;;5.34;85.04;97022.72;5050166;28;20290;-62
2021/12/13 03:30:35;;;;;;;5.63;4.23;;;;;;;4.81;86.98;97000.97;5050182;28;20258;-62
2021/12/13 03:34:01;;;;;;;6.87;4.47;;;;;;;4.90;87.60;97018.72;5049913;28;20213;-62
2021/12/13 03:36:42;;;;;;;7.27;4.53;;;;;;;4.88;87.09;97025.59;5049345;28;20595;-62
2021/12/13 03:40:06;;;;;;;6.93;4.77;;;;;;;4.86;86.97;97011.97;5049968;28;20201;-62
2021/12/13 03:43:27;;;;;;;8.73;5.87;;;;;;;4.84;85.94;97016.31;5049855;28;20713;-62
2021/12/13 03:46:47;;;;;;;5.87;4.50;;;;;;;4.74;85.47;97012.28;5049696;28;20184;-61
2021/12/13 03:50:09;;;;;;;7.67;5.03;;;;;;;4.56;86.76;97013.53;5048975;28;20259;-62
2021/12/13 03:53:29;;;;;;;6.43;4.17;;;;;;;4.72;86.88;97024.25;5049158;28;20236;-62
2021/12/13 03:56:50;;;;;;;7.13;4.17;;;;;;;4.71;85.85;97025.16;5049700;28;20277;-61
2021/12/13 04:00:11;;;;;;;5.27;3.70;;;;;;;4.72;86.46;97025.09;5049805;28;20238;-62
2021/12/13 04:03:31;;;;;;;5.40;3.63;;;;;;;4.80;86.12;97032.66;5049009;28;20199;-62
2021/12/13 04:06:57;;;;;;;4.27;3.40;;;;;;;4.71;85.97;97028.56;5048816;28;20237;-62
2021/12/13 04:10:18;;;;;;;5.13;3.97;;;;;;;4.90;84.50;97028.97;5048695;28;20213;-62
2021/12/13 04:13:39;;;;;;;7.50;4.50;;;;;;;4.94;84.10;97028.03;5049671;28;20230;-62
2021/12/13 04:16:33;;;;;;;5.90;3.93;;;;;;;5.15;84.55;97030.06;5049108;28;20197;-62
2021/12/13 04:20:15;;;;;;;6.07;3.93;;;;;;;5.23;82.18;97037.56;5048245;28;20325;-62
2021/12/13 04:23:35;;;;;;;5.43;3.70;;;;;;;5.19;83.31;97028.28;5066489;28;20198;-62
2021/12/13 04:26:56;;;;;;;6.67;4.27;;;;;;;5.38;83.76;97026.94;5061368;28;20558;-62
2021/12/13 04:30:17;;;;;;;6.07;4.00;;;;;;;5.53;83.06;97026.50;5068929;28;20273;-62
2021/12/13 04:33:49;;;;;;;4.70;3.60;;;;;;;5.59;83.44;97036.63;5063334;28;20201;-62
2021/12/13 04:37:10;;;;;;;5.00;3.80;;;;;;;5.58;82.20;97027.25;5068510;28;20256;-62
2021/12/13 04:40:31;;;;;;;6.83;4.67;;;;;;;5.61;83.24;97040.00;5068615;28;20195;-62
2021/12/13 04:43:51;;;;;;;6.30;3.97;;;;;;;5.66;82.88;97041.56;5068856;28;20290;-62
2021/12/13 04:47:12;;;;;;;8.47;4.93;;;;;;;5.61;82.62;97035.72;5068693;28;20382;-62
2021/12/13 04:50:19;;;;;;;6.60;4.90;;;;;;;5.56;83.47;97037.53;5065798;28;20548;-62
2021/12/13 04:53:39;;;;;;;10.03;6.23;;;;;;;5.42;82.64;97039.63;5068180;28;20255;-62
2021/12/13 04:57:00;;;;;;;3.83;3.30;;;;;;;5.13;81.64;97036.94;5068522;28;20186;-64
2021/12/13 05:00:21;;;;;;;6.23;4.50;;;;;;;5.15;81.24;97036.94;5068239;28;20193;-61
2021/12/13 05:03:41;;;;;;;4.57;3.50;;;;;;;5.11;80.81;97030.19;5067714;28;20211;-62
2021/12/13 05:07:05;;;;;;;6.63;4.37;;;;;;;5.19;81.80;97041.09;5067182;28;20248;-62
2021/12/13 05:10:26;;;;;;;5.40;3.57;;;;;;;5.16;79.98;97041.16;5068037;28;20224;-62
2021/12/13 05:13:47;;;;;;;7.17;3.80;;;;;;;5.16;79.80;97046.28;5068326;28;20197;-62
2021/12/13 05:17:07;;;;;;;4.30;3.20;;;;;;;5.14;79.58;97042.94;5067659;28;20254;-62
2021/12/13 05:20:34;;;;;;;6.13;3.70;;;;;;;5.14;81.29;97046.34;5067095;28;20196;-62
2021/12/13 05:24:10;;;;;;;7.20;4.63;;;;;;;5.17;79.51;97055.69;5066939;28;20593;-62
2021/12/13 05:27:33;;;;;;;6.30;4.77;;;;;;;4.97;81.38;97051.03;5052007;28;20252;-62
2021/12/13 05:30:58;;;;;;;5.93;4.53;;;;;;;4.75;80.26;97045.56;5046988;28;20203;-62
2021/12/13 05:34:19;;;;;;;7.90;5.20;;;;;;;4.59;81.71;97058.78;5047307;28;20201;-61
2021/12/13 05:37:40;;;;;;;10.63;7.23;;;;;;;4.56;82.66;97054.53;5046594;28;20722;-62
2021/12/13 05:41:00;;;;;;;8.20;5.93;;;;;;;4.73;82.40;97060.16;5046841;28;20245;-62
2021/12/13 05:44:21;;;;;;;11.40;7.50;;;;;;;4.72;82.22;97057.59;5047149;28;20253;-62
2021/12/13 05:47:45;;;;;;;14.83;8.60;;;;;;;4.72;83.08;97061.00;5047365;28;20256;-61
2021/12/13 05:51:08;;;;;;;14.80;7.77;;;;;;;4.52;83.48;97060.63;5044194;28;20202;-62
2021/12/13 05:54:12;;;;;;;9.47;6.63;;;;;;;4.59;83.69;97057.06;5046280;28;20194;-62
2021/12/13 05:57:16;;;;;;;9.80;7.00;;;;;;;4.57;84.50;97073.34;5047079;28;20719;-62
2021/12/13 06:00:38;;;;;;;8.47;5.97;;;;;;;4.60;84.25;97066.41;5047112;28;20190;-62
2021/12/13 06:03:59;;;;;;;9.97;7.40;;;;;;;4.68;83.63;97069.66;5046549;28;20681;-62
2021/12/13 06:07:23;;;;;;;9.77;7.10;;;;;;;4.97;84.10;97077.53;5046212;28;20201;-62
2021/12/13 06:10:58;;;;;;;12.27;8.60;;;;;;;5.26;83.38;97078.56;5046639;28;20229;-62
2021/12/13 06:13:42;;;;;;;10.70;6.87;;;;;;;5.33;81.46;97080.97;5047161;28;20181;-62
2021/12/13 06:16:25;;;;;;;16.67;9.67;;;;;;;5.28;82.51;97081.94;5045889;28;20746;-63
2021/12/13 06:19:28;;;;;;;18.83;10.00;;;;;;;5.29;82.13;97083.63;5046183;28;20195;-61
2021/12/13 06:22:52;;;;;;;19.67;11.07;;;;;;;5.37;83.17;97079.16;5046795;28;20763;-62
2021/12/13 06:26:15;;;;;;;24.07;13.63;;;;;;;5.37;81.96;97081.72;5046785;28;20849;-61
2021/12/13 06:29:36;;;;;;;17.03;10.37;;;;;;;5.38;82.00;97081.66;5045667;28;20642;-62
2021/12/13 06:33:15;;;;;;;19.27;10.80;;;;;;;5.37;82.57;97084.28;5045788;28;20194;-61
2021/12/13 06:36:45;;;;;;;21.03;12.17;;;;;;;5.26;81.93;97086.25;5045991;28;20202;-61
2021/12/13 06:40:09;;;;;;;20.80;11.77;;;;;;;5.29;81.98;97084.47;5046629;28;20195;-62
2021/12/13 06:43:29;;;;;;;22.97;12.37;;;;;;;5.44;82.70;97096.09;5045945;28;20823;-63
2021/12/13 06:46:50;;;;;;;24.90;15.10;;;;;;;5.28;84.02;97090.47;5045436;28;20265;-62
2021/12/13 06:50:12;;;;;;;18.77;11.30;;;;;;;5.37;82.66;97102.25;5045752;28;20323;-62
2021/12/13 06:53:33;;;;;;;14.60;10.37;;;;;;;5.42;82.70;97103.00;5046421;28;20190;-62
2021/12/13 06:56:56;;;;;;;18.17;10.73;;;;;;;5.45;83.23;97100.34;5046045;28;20198;-62
2021/12/13 07:00:17;;;;;;;13.97;10.70;;;;;;;5.53;82.85;97103.56;5045413;28;20433;-61
2021/12/13 07:03:18;;;;;;;21.23;12.00;;;;;;;5.65;82.22;97108.38;5044989;28;20190;-62
2021/12/13 07:06:39;;;;;;;20.37;12.53;;;;;;;5.60;82.99;97112.81;5060795;28;20202;-62
2021/12/13 07:09:59;;;;;;;19.87;12.43;;;;;;;5.53;83.33;97118.97;5046309;28;20225;-61
2021/12/13 07:13:23;;;;;;;23.20;11.40;;;;;;;5.58;82.50;97114.56;5045941;28;20195;-62
2021/12/13 07:16:51;;;;;;;28.77;13.50;;;;;;;5.48;83.54;97129.34;5044878;28;20239;-62
2021/12/13 07:20:12;;;;;;;29.47;15.93;;;;;;;5.58;81.79;97137.69;5045327;28;20201;-62
2021/12/13 07:23:35;;;;;;;20.80;12.40;;;;;;;5.32;83.65;97115.19;5045830;28;20289;-62
2021/12/13 07:26:59;;;;;;;16.40;10.90;;;;;;;5.46;83.65;97150.84;5045996;28;20188;-63
2021/12/13 07:29:48;;;;;;;13.33;8.50;;;;;;;5.34;83.08;97149.38;5045319;28;20607;-63
2021/12/13 07:32:33;;;;;;;14.00;8.73;;;;;;;5.51;81.84;97161.81;5045214;28;20196;-62
2021/12/13 07:35:33;;;;;;;18.90;10.37;;;;;;;5.63;82.24;97156.38;5043963;28;20274;-64
2021/12/13 07:38:17;;;;;;;13.17;8.63;;;;;;;5.75;80.44;97169.78;5045223;28;20199;-64
2021/12/13 07:41:38;;;;;;;13.87;9.27;;;;;;;5.59;80.38;97163.34;5045388;28;20745;-62
2021/12/13 07:44:31;;;;;;;18.87;11.47;;;;;;;5.58;80.14;97164.22;5045496;28;20200;-62
2021/12/13 07:47:58;;;;;;;20.90;12.73;;;;;;;5.50;81.58;97167.84;5045194;28;20195;-62
2021/12/13 07:51:18;;;;;;;15.43;11.13;;;;;;;5.61;79.41;97163.28;5044791;28;20610;-62
2021/12/13 07:53:58;;;;;;;13.87;9.77;;;;;;;5.67;80.02;97171.69;5047293;28;20281;-61
2021/12/13 07:57:11;;;;;;;15.33;10.07;;;;;;;5.87;79.56;97170.41;5031301;28;20299;-62
2021/12/13 08:00:32;;;;;;;13.73;8.60;;;;;;;6.07;78.10;97173.28;5048512;28;20693;-62
2021/12/13 08:03:53;;;;;;;13.77;9.40;;;;;;;6.08;79.13;97169.84;5047665;28;20191;-62
2021/12/13 08:07:14;;;;;;;11.47;6.80;;;;;;;6.17;78.57;97182.44;5048052;28;20277;-61
2021/12/13 08:10:23;;;;;;;15.57;9.27;;;;;;;6.15;79.93;97177.34;5048831;28;20232;-61
2021/12/13 08:13:47;;;;;;;14.00;9.37;;;;;;;6.09;79.35;97182.66;5048303;28;20202;-62
2021/12/13 08:17:08;;;;;;;13.53;9.20;;;;;;;6.03;80.19;97177.69;5047650;28;20206;-61
2021/12/13 08:20:29;;;;;;;18.43;10.90;;;;;;;6.12;79.19;97177.41;5046632;28;20193;-62
2021/12/13 08:23:58;;;;;;;20.73;12.13;;;;;;;6.30;78.89;97176.97;5048513;28;20746;-62
2021/12/13 08:27:19;;;;;;;18.97;12.07;;;;;;;6.37;80.10;97182.75;5048467;28;20282;-62
2021/12/13 08:30:49;;;;;;;13.13;9.40;;;;;;;6.43;78.78;97183.44;5047852;28;20311;-62
2021/12/13 08:34:02;;;;;;;14.17;8.53;;;;;;;6.50;79.82;97189.25;5047665;28;20208;-62
2021/12/13 08:37:32;;;;;;;13.40;7.73;;;;;;;6.49;78.42;97182.44;5047945;28;20184;-63
2021/12/13 08:40:52;;;;;;;13.80;7.97;;;;;;;6.55;78.95;97185.66;5039773;28;20211;-63
2021/12/13 08:44:19;;;;;;;9.97;6.20;;;;;;;6.51;77.22;97185.81;5047799;28;20231;-61
2021/12/13 08:47:40;;;;;;;9.50;7.20;;;;;;;6.30;77.36;97194.97;5048052;28;20212;-62
2021/12/13 08:51:01;;;;;;;10.37;6.50;;;;;;;6.41;76.77;97186.94;5047030;28;20204;-62
2021/12/13 08:54:02;;;;;;;10.00;6.63;;;;;;;6.39;77.88;97188.69;5047810;28;20191;-62
2021/12/13 08:57:23;;;;;;;12.13;7.93;;;;;;;6.35;76.83;97192.25;5047957;28;20244;-62
2021/12/13 09:00:12;;;;;;;13.80;8.93;;;;;;;6.42;77.59;97186.06;5047775;28;20216;-62
2021/12/13 09:03:33;;;;;;;11.13;7.50;;;;;;;6.35;76.86;97195.66;5047188;28;20189;-62
2021/12/13 09:06:17;;;;;;;11.47;7.60;;;;;;;6.43;77.57;97187.72;5047565;28;20189;-62
2021/12/13 09:09:04;;;;;;;18.10;8.03;;;;;;;6.45;77.63;97188.56;5046996;28;20228;-61
2021/12/13 09:12:25;;;;;;;12.47;7.77;;;;;;;6.61;76.39;97189.81;5046915;28;20188;-63
2021/12/13 09:15:45;;;;;;;10.50;7.30;;;;;;;6.59;76.78;97192.41;5047005;28;20211;-62
2021/12/13 09:19:06;;;;;;;14.70;8.93;;;;;;;6.34;75.74;97193.16;5047565;28;20185;-61
2021/12/13 09:22:27;;;;;;;15.40;10.47;;;;;;;6.39;78.06;97188.69;5047011;28;20197;-61
2021/12/13 09:25:37;;;;;;;13.80;9.20;;;;;;;6.48;77.75;97171.31;5046217;28;20206;-62
2021/12/13 09:28:53;;;;;;;12.07;7.53;;;;;;;6.53;77.77;97178.91;5045573;28;20223;-62
2021/12/13 09:32:14;;;;;;;9.80;6.07;;;;;;;6.38;75.59;97180.16;5047070;28;20744;-62
2021/12/13 09:35:14;;;;;;;14.97;8.97;;;;;;;6.36;76.69;97181.94;5046505;28;20628;-62
2021/12/13 09:38:21;;;;;;;10.70;7.10;;;;;;;6.37;77.26;97169.91;5046094;28;20216;-63
2021/12/13 09:42:06;;;;;;;8.43;6.13;;;;;;;6.33;76.50;97181.16;5046843;28;20220;-63
2021/12/13 09:45:29;;;;;;;9.67;6.43;;;;;;;6.35;77.00;97180.22;5046827;28;20198;-61
2021/12/13 09:48:50;;;;;;;13.70;8.03;;;;;;;6.35;77.97;97179.38;5044250;28;20228;-62
2021/12/13 09:52:11;;;;;;;16.83;9.40;;;;;;;6.37;78.00;97177.63;5045961;28;20199;-62
2021/12/13 09:55:41;;;;;;;13.87;8.50;;;;;;;6.14;78.04;97179.97;5044729;28;20296;-62
2021/12/13 09:59:06;;;;;;;15.53;9.73;;;;;;;5.99;77.90;97181.22;5046485;28;20619;-62
2021/12/13 10:02:26;;;;;;;13.20;9.10;;;;;;;5.89;77.88;97172.06;5046160;28;20191;-61
2021/12/13 10:05:47;;;;;;;13.47;8.40;;;;;;;5.99;79.54;97183.78;5046191;28;20574;-62
2021/12/13 10:09:16;;;;;;;13.77;9.33;;;;;;;6.21;77.91;97182.34;5045269;28;20322;-62
2021/12/13 10:12:48;;;;;;;9.33;6.10;;;;;;;6.27;79.02;97187.31;5043844;28;20200;-64
2021/12/13 10:16:13;;;;;;;10.90;6.60;;;;;;;6.31;79.97;97188.06;5045951;28;20188;-63
2021/12/13 10:19:33;;;;;;;21.27;14.50;;;;;;;6.50;79.35;97191.84;5045006;28;20203;-63
2021/12/13 10:22:54;;;;;;;20.00;10.83;;;;;;;6.55;77.29;97185.66;5045913;28;20203;-62
2021/12/13 10:26:15;;;;;;;12.30;8.43;;;;;;;6.50;77.19;97177.25;5044858;28;20204;-62
2021/12/13 10:29:35;;;;;;;11.03;7.70;;;;;;;6.40;76.34;97180.97;5028689;28;20233;-63
2021/12/13 10:32:59;;;;;;;12.97;7.43;;;;;;;6.30;76.99;97181.25;5046237;28;20211;-63
2021/12/13 10:36:20;;;;;;;13.87;8.00;;;;;;;6.42;76.34;97180.91;5045855;28;20193;-62
2021/12/13 10:39:41;;;;;;;13.07;7.13;;;;;;;6.33;75.26;97174.28;5045048;28;20815;-61
2021/12/13 10:43:01;;;;;;;9.50;7.30;;;;;;;6.32;76.33;97175.19;5044839;28;20240;-62
2021/12/13 10:46:23;;;;;;;11.40;6.00;;;;;;;6.41;76.93;97167.22;5045538;28;20191;-63
2021/12/13 10:49:50;;;;;;;8.80;6.80;;;;;;;6.45;77.15;97168.81;5045529;28;20227;-61
2021/12/13 10:53:11;;;;;;;12.10;8.47;;;;;;;6.34;78.78;97165.72;5045743;28;20192;-63
2021/12/13 10:56:37;;;;;;;14.03;6.70;;;;;;;6.45;77.39;97161.09;5043819;28;20436;-63
2021/12/13 10:59:59;;;;;;;10.33;6.93;;;;;;;6.46;77.60;97160.22;5043312;28;20214;-63
2021/12/13 11:03:20;;;;;;;8.10;5.50;;;;;;;6.21;78.00;97156.63;5045481;28;20633;-63
2021/12/13 11:06:41;;;;;;;9.93;6.93;;;;;;;6.15;77.66;97154.22;5045923;28;20290;-63
2021/12/13 11:10:01;;;;;;;12.37;7.67;;;;;;;6.22;78.12;97149.75;5045154;28;20286;-62
2021/12/13 11:13:22;;;;;;;17.33;11.10;;;;;;;6.33;80.02;97150.28;5059171;28;20205;-62
2021/12/13 11:16:43;;;;;;;10.97;7.00;;;;;;;6.47;78.40;97145.63;5043486;28;20205;-61
2021/12/13 11:20:03;;;;;;;10.53;6.37;;;;;;;6.38;78.05;97144.16;5045827;28;20200;-61
2021/12/13 11:23:24;;;;;;;11.77;7.47;;;;;;;6.41;78.16;97131.19;5045021;28;20584;-62
2021/12/13 11:26:45;;;;;;;12.00;8.00;;;;;;;6.18;78.78;97146.41;5042412;28;20279;-62
2021/12/13 11:30:05;;;;;;;11.50;8.00;;;;;;;6.12;79.58;97141.44;5048380;28;20223;-62
2021/12/13 11:32:58;;;;;;;8.73;6.13;;;;;;;6.01;79.97;97142.63;5049009;28;20192;-62
2021/12/13 11:36:23;;;;;;;8.93;5.90;;;;;;;6.12;78.32;97138.84;5047938;28;20189;-63
2021/12/13 11:39:49;;;;;;;11.40;9.20;;;;;;;6.14;79.21;97142.22;5048160;28;20750;-62
2021/12/13 11:42:51;;;;;;;13.87;8.57;;;;;;;6.15;80.71;97141.38;5047945;28;20656;-62
2021/12/13 11:46:14;;;;;;;11.67;7.87;;;;;;;6.06;78.62;97140.78;5049310;28;20187;-62
2021/12/13 11:49:48;;;;;;;11.43;6.83;;;;;;;6.07;78.69;97140.72;5048971;28;20227;-61
2021/12/13 11:52:53;;;;;;;13.37;8.50;;;;;;;6.05;78.25;97139.94;5048410;28;20203;-62
2021/12/13 11:56:03;;;;;;;16.50;8.10;;;;;;;6.02;79.79;97142.56;5047802;28;20243;-62
2021/12/13 11:59:05;;;;;;;10.40;8.30;;;;;;;5.77;79.95;97142.31;5046751;28;20684;-61
2021/12/13 12:02:38;;;;;;;9.80;7.30;;;;;;;5.76;80.14;97137.22;5048911;28;20195;-62
2021/12/13 12:05:37;;;;;;;8.57;5.50;;;;;;;5.81;77.92;97140.53;5046730;28;20209;-61
2021/12/13 12:09:02;;;;;;;10.30;6.97;;;;;;;5.68;78.53;97140.00;5047456;28;20233;-62
2021/12/13 12:12:35;;;;;;;10.03;7.50;;;;;;;5.84;77.71;97140.47;5048531;28;20227;-62
2021/12/13 12:15:58;;;;;;;12.30;6.43;;;;;;;5.63;79.03;97140.97;5048785;28;20196;-62
2021/12/13 12:19:19;;;;;;;16.00;8.70;;;;;;;5.76;77.70;97139.78;5048763;28;20187;-63
2021/12/13 12:22:43;;;;;;;14.07;7.20;;;;;;;5.85;76.87;97142.19;5047698;28;20200;-62
2021/12/13 12:26:03;;;;;;;18.17;8.57;;;;;;;6.01;76.74;97148.59;5047652;28;20248;-62
2021/12/13 12:29:27;;;;;;;8.20;5.90;;;;;;;5.94;76.68;97146.22;5048110;28;20221;-63
2021/12/13 12:32:57;;;;;;;12.70;7.63;;;;;;;5.91;76.24;97143.75;5063293;28;20579;-62
2021/12/13 12:36:21;;;;;;;10.70;6.53;;;;;;;5.90;76.08;97145.44;5048125;28;20230;-64
2021/12/13 12:39:02;;;;;;;9.43;6.07;;;;;;;5.93;74.31;97152.25;5047205;28;20193;-63
2021/12/13 12:42:44;;;;;;;9.20;6.27;;;;;;;5.92;74.92;97143.69;5046245;28;20191;-62
2021/12/13 12:45:51;;;;;;;6.93;5.13;;;;;;;5.72;73.41;97154.47;5048402;28;20617;-62
2021/12/13 12:49:12;;;;;;;5.10;4.60;;;;;;;5.59;76.47;97159.91;5047721;28;20252;-63
2021/12/13 12:52:32;;;;;;;8.50;5.57;;;;;;;5.39;76.11;97121.88;5061807;28;20190;-61
2021/12/13 12:55:39;;;;;;;15.60;9.50;;;;;;;5.77;76.63;97167.16;5047359;28;20203;-62
2021/12/13 12:58:45;;;;;;;17.60;8.97;;;;;;;5.66;75.76;97139.19;5048051;28;20866;-62
2021/12/13 13:02:15;;;;;;;15.90;12.43;;;;;;;5.86;74.24;97173.84;5047490;28;20642;-62
2021/12/13 13:05:35;;;;;;;13.17;8.67;;;;;;;5.79;74.52;97167.97;5044965;28;20630;-61
2021/12/13 13:09:09;;;;;;;14.27;8.50;;;;;;;5.69;75.37;97177.63;5046997;28;20223;-63
2021/12/13 13:12:30;;;;;;;11.17;8.23;;;;;;;5.73;74.74;97178.41;5045704;28;20191;-62
2021/12/13 13:15:57;;;;;;;19.70;10.03;;;;;;;5.81;75.31;97176.50;5047832;28;20608;-63
2021/12/13 13:19:17;;;;;;;12.63;8.87;;;;;;;5.40;74.84;97113.28;5046924;28;20254;-62
2021/12/13 13:22:44;;;;;;;16.67;9.33;;;;;;;5.76;75.22;97188.63;5046595;28;20311;-64
2021/12/13 13:26:08;;;;;;;16.43;10.17;;;;;;;5.88;74.46;97187.50;5047015;28;20525;-63
2021/12/13 13:29:28;;;;;;;16.13;9.30;;;;;;;5.86;74.88;97184.13;5047128;28;20255;-61
2021/12/13 13:32:49;;;;;;;16.53;10.63;;;;;;;5.90;75.91;97185.72;5047283;28;20191;-61
2021/12/13 13:36:10;;;;;;;17.33;8.40;;;;;;;5.77;74.72;97185.16;5046227;28;20663;-62
2021/12/13 13:39:13;;;;;;;18.83;9.23;;;;;;;5.73;75.69;97155.28;5046398;28;20272;-62
2021/12/13 13:42:26;;;;;;;13.67;8.50;;;;;;;5.80;74.65;97182.50;5046979;28;20587;-62
2021/12/13 13:45:28;;;;;;;17.57;10.63;;;;;;;5.77;75.70;97192.84;5045134;28;20191;-64
2021/12/13 13:48:49;;;;;;;20.53;9.53;;;;;;;5.87;74.26;97196.09;5046170;28;20220;-62
2021/12/13 13:52:09;;;;;;;17.50;9.17;;;;;;;5.59;73.81;97198.44;5045800;28;20192;-62
2021/12/13 13:55:45;;;;;;;22.90;10.50;;;;;;;5.47;75.27;97186.75;5046846;28;20222;-63
2021/12/13 13:59:06;;;;;;;16.07;8.83;;;;;;;5.65;74.76;97208.56;5046643;28;20192;-62
2021/12/13 14:02:26;;;;;;;13.53;9.83;;;;;;;5.71;75.43;97201.56;5046462;28;20188;-63
2021/12/13 14:05:47;;;;;;;15.47;10.17;;;;;;;5.76;75.21;97204.88;5045560;28;20638;-62
2021/12/13 14:09:20;;;;;;;16.70;11.53;;;;;;;5.81;74.94;97204.78;5046044;28;20575;-63
2021/12/13 14:12:54;;;;;;;22.83;10.77;;;;;;;5.78;75.23;97220.25;5046701;28;20199;-62
2021/12/13 14:16:15;;;;;;;15.23;9.30;;;;;;;5.67;76.05;97222.22;5046661;28;20206;-62
2021/12/13 14:19:39;;;;;;;18.10;9.33;;;;;;;5.76;74.90;97227.16;5045632;28;20191;-63
2021/12/13 14:22:59;;;;;;;23.00;12.93;;;;;;;5.61;76.20;97224.94;5045403;28;20377;-62
2021/12/13 14:26:20;;;;;;;24.53;14.17;;;;;;;5.66;76.47;97228.25;5045737;28;20247;-61
2021/12/13 14:29:41;;;;;;;34.47;15.20;;;;;;;5.77;76.87;97219.41;5029657;28;20234;-62
2021/12/13 14:33:01;;;;;;;20.07;12.00;;;;;;;5.76;76.63;97214.31;5046103;28;20673;-61
2021/12/13 14:36:25;;;;;;;24.97;10.87;;;;;;;5.75;77.09;97225.44;5045392;28;20198;-62
2021/12/13 14:39:34;;;;;;;24.53;13.00;;;;;;;5.61;76.88;97222.38;5045102;28;20239;-62
2021/12/13 14:42:55;;;;;;;16.63;11.10;;;;;;;5.56;76.06;97222.47;5059183;28;20242;-62
2021/12/13 14:45:41;;;;;;;19.20;11.57;;;;;;;5.58;76.01;97228.44;5043698;28;20225;-62
2021/12/13 14:48:08;;;;;;;27.60;16.93;;;;;;;5.31;77.60;97230.78;5044350;28;20223;-62
2021/12/13 14:50:35;;;;;;;25.73;14.13;;;;;;;5.37;76.20;97235.78;5045973;28;20200;-63
2021/12/13 14:53:06;;;;;;;22.67;14.87;;;;;;;5.23;76.66;97215.56;5045431;28;20206;-61
2021/12/13 14:55:41;;;;;;;24.23;15.97;;;;;;;5.14;78.81;97232.84;5044369;28;20747;-61
2021/12/13 14:58:57;;;;;;;24.30;15.50;;;;;;;5.27;75.30;97239.44;5056685;28;20297;-62
2021/12/13 15:02:18;;;;;;;6.37;4.50;;;;;;;5.37;69.05;97228.06;5065376;28;20283;-61
2021/12/13 15:05:39;;;;;;;4.57;3.10;;;;;;;5.51;67.22;97218.31;5068861;28;20201;-64
2021/12/13 15:08:59;;;;;;;9.37;4.57;;;;;;;5.47;68.45;97230.41;5050866;28;20190;-63
2021/12/13 15:12:23;;;;;;;5.93;3.93;;;;;;;5.47;68.37;97226.97;5070040;28;20193;-62
2021/12/13 15:15:50;;;;;;;4.37;3.10;;;;;;;5.49;68.65;97231.22;5048176;28;20294;-63
2021/12/13 15:18:51;;;;;;;17.47;11.30;;;;;;;5.32;70.55;97238.44;5051879;28;20221;-62
2021/12/13 15:22:12;;;;;;;4.50;3.13;;;;;;;5.30;69.66;97244.47;5069219;28;20746;-62
2021/12/13 15:25:32;;;;;;;5.33;3.50;;;;;;;5.24;69.20;97244.63;5069574;28;20194;-62
2021/12/13 15:28:56;;;;;;;3.10;2.53;;;;;;;5.28;67.83;97243.66;5069132;28;20696;-61
2021/12/13 15:32:17;;;;;;;5.50;4.00;;;;;;;5.31;67.70;97239.34;5068604;28;20187;-62
2021/12/13 15:35:38;;;;;;;6.10;3.20;;;;;;;5.30;66.92;97253.03;5083682;28;20668;-62
2021/12/13 15:38:58;;;;;;;3.97;3.10;;;;;;;5.31;67.64;97251.31;5069192;28;20186;-62